Time;durP1;ratioP1;P1;durP2;ratioP2;P2;SDS_P1;SDS_P2;PMS_P1;PMS_P2;Temp;Humidity;BMP_temperature;BMP_pressure;BME280_temperature;BME280_humidity;BME280_pressure;Samples;Min_cycle;Max_cycle;Signal;HPM_P1;HPM_P2
2023/08/04 00:00:49;;;;;;;;;;;;;;;;;;4888498;29;19931;-87
2023/08/04 00:03:15;;;;;;;;;;;;;;;;;;4883629;29;20429;-88
2023/08/04 00:05:41;;;;;;;;;;;;;;;;;;4886067;29;20655;-87
2023/08/04 00:08:10;;;;;;;;;;;;;;;;;;4871476;29;19937;-87
2023/08/04 00:10:36;;;;;;;;;;;;;;;;;;4867881;29;19927;-87
2023/08/04 00:13:02;;;;;;;;;;;;;;;;;;4888171;29;20366;-87
2023/08/04 00:15:28;;;;;;;;;;;;;;;;;;4866431;29;21764;-87
2023/08/04 00:17:54;;;;;;;;;;;;;;;;;;4885464;29;20021;-87
2023/08/04 00:20:20;;;;;;;;;;;;;;;;;;4866486;29;19927;-87
2023/08/04 00:22:46;;;;;;;;;;;;;;;;;;4887908;29;20034;-87
2023/08/04 00:25:12;;;;;;;;;;;;;;;;;;4880836;29;20040;-87
2023/08/04 00:27:38;;;;;;;;;;;;;;;;;;4871474;29;19931;-87
2023/08/04 00:30:04;;;;;;;;;;;;;;;;;;4870117;29;19931;-87
2023/08/04 00:32:30;;;;;;;;;;;;;;;;;;4885363;29;20010;-87
2023/08/04 00:34:56;;;;;;;;;;;;;;;;;;4886705;29;19938;-87
2023/08/04 00:37:22;;;;;;;;;;;;;;;;;;4882978;29;20376;-87
2023/08/04 00:39:48;;;;;;;;;;;;;;;;;;4873386;29;19926;-87
2023/08/04 00:42:14;;;;;;;;;;;;;;;;;;4885707;29;20035;-87
2023/08/04 00:44:39;;;;;;;;;;;;;;;;;;4890193;29;19937;-87
2023/08/04 00:47:05;;;;;;;;;;;;;;;;;;4888554;28;20331;-87
2023/08/04 00:49:32;;;;;;;;;;;;;;;;;;4884535;29;20000;-87
2023/08/04 00:51:58;;;;;;;;;;;;;;;;;;4888410;29;19935;-87
2023/08/04 00:54:24;;;;;;;;;;;;;;;;;;4868580;29;19934;-87
2023/08/04 00:56:50;;;;;;;;;;;;;;;;;;4887791;29;19989;-87
2023/08/04 00:59:15;;;;;;;;;;;;;;;;;;4868389;29;19978;-87
2023/08/04 01:01:41;;;;;;;;;;;;;;;;;;4875436;29;19922;-87
2023/08/04 01:04:10;;;;;;;;;;;;;;;;;;4870171;29;19938;-87
2023/08/04 01:06:36;;;;;;;;;;;;;;;;;;4874191;29;19935;-87
2023/08/04 01:09:02;;;;;;;;;;;;;;;;;;4894784;29;20517;-87
2023/08/04 01:11:28;;;;;;;;;;;;;;;;;;4878814;29;21242;-87
2023/08/04 01:13:54;;;;;;;;;;;;;;;;;;4900629;29;19977;-87
2023/08/04 01:16:20;;;;;;;;;;;;;;;;;;4881477;29;19930;-87
2023/08/04 01:18:46;;;;;;;;;;;;;;;;;;4893097;29;19933;-87
2023/08/04 01:21:12;;;;;;;;;;;;;;;;;;4884582;29;19943;-87
2023/08/04 01:23:38;;;;;;;;;;;;;;;;;;4874918;29;19981;-87
2023/08/04 01:26:06;;;;;;;;;;;;;;;;;;4886835;29;19970;-87
2023/08/04 01:28:32;;;;;;;;;;;;;;;;;;4874730;29;20038;-87
2023/08/04 01:30:58;;;;;;;;;;;;;;;;;;4895929;29;19926;-87
2023/08/04 01:33:24;;;;;;;;;;;;;;;;;;4873449;29;20000;-87
2023/08/04 01:35:50;;;;;;;;;;;;;;;;;;4891299;29;19927;-87
2023/08/04 01:38:16;;;;;;;;;;;;;;;;;;4884108;29;20429;-87
2023/08/04 01:40:42;;;;;;;;;;;;;;;;;;4888600;29;20666;-87
2023/08/04 01:43:09;;;;;;;;;;;;;;;;;;4888567;29;19931;-87
2023/08/04 01:45:35;;;;;;;;;;;;;;;;;;4873144;29;19931;-87
2023/08/04 01:48:01;;;;;;;;;;;;;;;;;;4890067;29;19954;-87
2023/08/04 01:50:26;;;;;;;;;;;;;;;;;;4883765;29;19931;-87
2023/08/04 01:52:54;;;;;;;;;;;;;;;;;;4888885;29;19930;-87
2023/08/04 01:55:20;;;;;;;;;;;;;;;;;;4885845;29;20496;-87
2023/08/04 01:57:46;;;;;;;;;;;;;;;;;;4888860;29;20009;-87
2023/08/04 02:00:13;;;;;;;;;;;;;;;;;;4885221;29;20866;-87
2023/08/04 02:02:39;;;;;;;;;;;;;;;;;;4876742;29;20041;-87
2023/08/04 02:05:05;;;;;;;;;;;;;;;;;;4886332;29;20360;-87
2023/08/04 02:07:32;;;;;;;;;;;;;;;;;;4884282;29;19953;-87
2023/08/04 02:09:58;;;;;;;;;;;;;;;;;;4885926;29;20025;-87
2023/08/04 02:12:24;;;;;;;;;;;;;;;;;;4881733;29;19927;-87
2023/08/04 02:14:50;;;;;;;;;;;;;;;;;;4887871;29;19973;-87
2023/08/04 02:17:17;;;;;;;;;;;;;;;;;;4883547;28;20389;-87
2023/08/04 02:19:44;;;;;;;;;;;;;;;;;;4887291;29;19937;-87
2023/08/04 02:22:10;;;;;;;;;;;;;;;;;;4885229;29;19930;-87
2023/08/04 02:24:36;;;;;;;;;;;;;;;;;;4872154;29;19938;-87
2023/08/04 02:27:01;;;;;;;;;;;;;;;;;;4899739;29;19931;-86
2023/08/04 02:29:27;;;;;;;;;;;;;;;;;;4899501;29;19938;-87
2023/08/04 02:31:53;;;;;;;;;;;;;;;;;;4908267;29;20013;-87
2023/08/04 02:34:19;;;;;;;;;;;;;;;;;;4895049;29;20465;-87
2023/08/04 02:36:45;;;;;;;;;;;;;;;;;;4904304;29;19970;-87
2023/08/04 02:39:11;;;;;;;;;;;;;;;;;;4894753;29;20988;-87
2023/08/04 02:41:37;;;;;;;;;;;;;;;;;;4904481;29;19927;-87
2023/08/04 02:44:06;;;;;;;;;;;;;;;;;;4888890;29;20022;-87
2023/08/04 02:46:32;;;;;;;;;;;;;;;;;;4899867;29;20029;-87
2023/08/04 02:48:58;;;;;;;;;;;;;;;;;;4888385;29;19927;-86
2023/08/04 02:51:24;;;;;;;;;;;;;;;;;;4869856;29;19987;-86
2023/08/04 02:53:49;;;;;;;;;;;;;;;;;;4888256;29;19934;-87
2023/08/04 02:56:15;;;;;;;;;;;;;;;;;;4871200;29;19923;-87
2023/08/04 02:58:41;;;;;;;;;;;;;;;;;;4900497;29;19997;-87
2023/08/04 03:01:07;;;;;;;;;;;;;;;;;;4905424;29;19931;-87
2023/08/04 03:03:33;;;;;;;;;;;;;;;;;;4886589;29;19930;-87
2023/08/04 03:05:59;;;;;;;;;;;;;;;;;;4887794;29;19942;-87
2023/08/04 03:08:25;;;;;;;;;;;;;;;;;;4884470;29;20041;-87
2023/08/04 03:10:51;;;;;;;;;;;;;;;;;;4888033;29;19926;-86
2023/08/04 03:13:17;;;;;;;;;;;;;;;;;;4866229;29;19978;-87
2023/08/04 03:15:43;;;;;;;;;;;;;;;;;;4886522;29;19931;-87
2023/08/04 03:18:09;;;;;;;;;;;;;;;;;;4883529;29;19931;-87
2023/08/04 03:20:35;;;;;;;;;;;;;;;;;;4885428;29;19930;-87
2023/08/04 03:23:01;;;;;;;;;;;;;;;;;;4888387;29;19927;-87
2023/08/04 03:25:27;;;;;;;;;;;;;;;;;;4883789;29;19957;-87
2023/08/04 03:27:53;;;;;;;;;;;;;;;;;;4887351;29;19966;-87
2023/08/04 03:30:19;;;;;;;;;;;;;;;;;;4882218;29;20480;-87
2023/08/04 03:32:45;;;;;;;;;;;;;;;;;;4877915;29;20067;-87
2023/08/04 03:35:11;;;;;;;;;;;;;;;;;;4883923;29;20271;-87
2023/08/04 03:37:37;;;;;;;;;;;;;;;;;;4876308;29;19937;-87
2023/08/04 03:40:03;;;;;;;;;;;;;;;;;;4887883;29;19927;-87
2023/08/04 03:42:29;;;;;;;;;;;;;;;;;;4869139;29;21275;-87
2023/08/04 03:44:55;;;;;;;;;;;;;;;;;;4886594;29;20296;-87
2023/08/04 03:47:21;;;;;;;;;;;;;;;;;;4887385;29;20645;-87
2023/08/04 03:49:47;;;;;;;;;;;;;;;;;;4890966;29;19962;-87
2023/08/04 03:52:13;;;;;;;;;;;;;;;;;;4886338;29;19931;-87
2023/08/04 03:54:39;;;;;;;;;;;;;;;;;;4888097;29;19938;-87
2023/08/04 03:57:05;;;;;;;;;;;;;;;;;;4871775;29;19942;-87
2023/08/04 03:59:31;;;;;;;;;;;;;;;;;;4884306;29;19938;-87
2023/08/04 04:01:57;;;;;;;;;;;;;;;;;;4888104;29;20579;-87
2023/08/04 04:04:23;;;;;;;;;;;;;;;;;;4895808;29;19974;-87
2023/08/04 04:13:18;;;;;;;;;;;;;;;;;;4847911;29;19931;-87
2023/08/04 04:15:44;;;;;;;;;;;;;;;;;;4820148;29;19954;-87
2023/08/04 04:18:10;;;;;;;;;;;;;;;;;;4862465;29;19926;-87
2023/08/04 04:20:36;;;;;;;;;;;;;;;;;;4889451;29;19934;-87
2023/08/04 04:23:02;;;;;;;;;;;;;;;;;;4889219;29;19926;-87
2023/08/04 04:25:28;;;;;;;;;;;;;;;;;;4885699;29;19927;-87
2023/08/04 04:27:53;;;;;;;;;;;;;;;;;;4876004;29;19930;-86
2023/08/04 04:30:19;;;;;;;;;;;;;;;;;;4884395;29;20391;-87
2023/08/04 04:32:45;;;;;;;;;;;;;;;;;;4889516;29;20289;-87
2023/08/04 04:35:11;;;;;;;;;;;;;;;;;;4880752;29;19927;-87
2023/08/04 04:37:37;;;;;;;;;;;;;;;;;;4891180;29;19930;-87
2023/08/04 04:40:03;;;;;;;;;;;;;;;;;;4891677;29;19938;-87
2023/08/04 04:42:29;;;;;;;;;;;;;;;;;;4874443;29;20025;-87
2023/08/04 04:44:56;;;;;;;;;;;;;;;;;;4892013;29;19974;-87
2023/08/04 04:47:22;;;;;;;;;;;;;;;;;;4889895;29;19931;-87
2023/08/04 04:49:47;;;;;;;;;;;;;;;;;;4906407;29;19949;-87
2023/08/04 04:52:13;;;;;;;;;;;;;;;;;;4902030;29;19935;-87
2023/08/04 04:54:39;;;;;;;;;;;;;;;;;;4906455;29;20017;-87
2023/08/04 04:57:06;;;;;;;;;;;;;;;;;;4894621;29;19938;-87
2023/08/04 04:59:31;;;;;;;;;;;;;;;;;;4889997;29;22167;-87
2023/08/04 05:01:57;;;;;;;;;;;;;;;;;;4886599;29;19923;-87
2023/08/04 05:04:23;;;;;;;;;;;;;;;;;;4882302;29;20367;-87
2023/08/04 05:06:49;;;;;;;;;;;;;;;;;;4872318;29;20437;-86
2023/08/04 05:09:15;;;;;;;;;;;;;;;;;;4883165;29;20527;-87
2023/08/04 05:11:41;;;;;;;;;;;;;;;;;;4876580;29;20384;-87
2023/08/04 05:14:07;;;;;;;;;;;;;;;;;;4887644;29;19973;-86
2023/08/04 05:16:33;;;;;;;;;;;;;;;;;;4883219;29;20042;-87
2023/08/04 05:18:59;;;;;;;;;;;;;;;;;;4873146;29;19953;-87
2023/08/04 05:21:25;;;;;;;;;;;;;;;;;;4870709;29;19973;-86
2023/08/04 05:23:51;;;;;;;;;;;;;;;;;;4888188;29;19935;-87
2023/08/04 05:26:17;;;;;;;;;;;;;;;;;;4898980;29;20898;-87
2023/08/04 05:28:43;;;;;;;;;;;;;;;;;;4878074;29;19934;-87
2023/08/04 05:31:09;;;;;;;;;;;;;;;;;;4877936;29;20017;-87
2023/08/04 05:33:35;;;;;;;;;;;;;;;;;;4891923;29;19931;-87
2023/08/04 05:36:01;;;;;;;;;;;;;;;;;;4904914;29;20032;-87
2023/08/04 05:38:28;;;;;;;;;;;;;;;;;;4895832;29;19931;-87
2023/08/04 05:40:54;;;;;;;;;;;;;;;;;;4903084;29;19933;-87
2023/08/04 05:43:20;;;;;;;;;;;;;;;;;;4913968;29;19927;-87
2023/08/04 05:45:47;;;;;;;;;;;;;;;;;;4897425;29;19938;-87
2023/08/04 05:48:13;;;;;;;;;;;;;;;;;;4893906;29;20060;-87
2023/08/04 05:50:39;;;;;;;;;;;;;;;;;;4901739;29;20234;-86
2023/08/04 05:53:05;;;;;;;;;;;;;;;;;;4899553;29;19932;-87
2023/08/04 05:55:31;;;;;;;;;;;;;;;;;;4894434;29;21923;-87
2023/08/04 05:57:57;;;;;;;;;;;;;;;;;;4897820;29;20376;-87
2023/08/04 06:00:24;;;;;;;;;;;;;;;;;;4881920;29;20029;-87
2023/08/04 06:02:50;;;;;;;;;;;;;;;;;;4885665;29;19923;-87
2023/08/04 06:05:16;;;;;;;;;;;;;;;;;;4909312;29;21899;-87
2023/08/04 06:07:42;;;;;;;;;;;;;;;;;;4912868;29;19979;-87
2023/08/04 06:10:08;;;;;;;;;;;;;;;;;;4913356;29;20307;-87
2023/08/04 06:12:34;;;;;;;;;;;;;;;;;;4882431;29;19927;-87
2023/08/04 06:15:00;;;;;;;;;;;;;;;;;;4912731;29;23255;-87
2023/08/04 06:17:26;;;;;;;;;;;;;;;;;;4910787;28;19933;-87
2023/08/04 06:19:52;;;;;;;;;;;;;;;;;;4900095;29;19923;-87
2023/08/04 06:22:18;;;;;;;;;;;;;;;;;;4895061;29;20054;-86
2023/08/04 06:24:44;;;;;;;;;;;;;;;;;;4884518;29;19938;-87
2023/08/04 06:27:10;;;;;;;;;;;;;;;;;;4880445;29;19938;-87
2023/08/04 06:29:36;;;;;;;;;;;;;;;;;;4894241;29;19958;-87
2023/08/04 06:32:02;;;;;;;;;;;;;;;;;;4898728;29;19927;-87
2023/08/04 06:34:28;;;;;;;;;;;;;;;;;;4892542;29;19931;-87
2023/08/04 06:36:54;;;;;;;;;;;;;;;;;;4885309;29;19937;-87
2023/08/04 06:39:22;;;;;;;;;;;;;;;;;;4879443;29;19927;-87
2023/08/04 06:41:48;;;;;;;;;;;;;;;;;;4887876;29;19923;-87
2023/08/04 06:44:14;;;;;;;;;;;;;;;;;;4897626;29;20475;-87
2023/08/04 06:46:40;;;;;;;;;;;;;;;;;;4903917;29;19989;-87
2023/08/04 06:49:06;;;;;;;;;;;;;;;;;;4905669;29;20394;-87
2023/08/04 06:51:32;;;;;;;;;;;;;;;;;;4881037;29;20706;-87
2023/08/04 06:53:57;;;;;;;;;;;;;;;;;;4897306;29;20399;-87
2023/08/04 06:56:23;;;;;;;;;;;;;;;;;;4895047;29;19965;-87
2023/08/04 06:58:49;;;;;;;;;;;;;;;;;;4880074;29;19938;-87
2023/08/04 07:01:15;;;;;;;;;;;;;;;;;;4888419;29;19970;-87
2023/08/04 07:03:41;;;;;;;;;;;;;;;;;;4900284;29;19926;-86
2023/08/04 07:06:07;;;;;;;;;;;;;;;;;;4897047;29;20498;-87
2023/08/04 07:08:33;;;;;;;;;;;;;;;;;;4880683;29;19966;-87
2023/08/04 07:10:59;;;;;;;;;;;;;;;;;;4883835;29;19960;-87
2023/08/04 07:13:25;;;;;;;;;;;;;;;;;;4908932;29;19982;-87
2023/08/04 07:15:51;;;;;;;;;;;;;;;;;;4882399;29;20262;-87
2023/08/04 07:18:17;;;;;;;;;;;;;;;;;;4894425;29;20006;-87
2023/08/04 07:20:43;;;;;;;;;;;;;;;;;;4884675;29;19923;-86
2023/08/04 07:23:09;;;;;;;;;;;;;;;;;;4875852;29;19933;-87
2023/08/04 07:25:38;;;;;;;;;;;;;;;;;;4895943;28;19933;-87
2023/08/04 07:28:04;;;;;;;;;;;;;;;;;;4897188;29;19927;-87
2023/08/04 07:30:30;;;;;;;;;;;;;;;;;;4898625;29;20459;-87
2023/08/04 07:32:56;;;;;;;;;;;;;;;;;;4906624;29;20341;-87
2023/08/04 07:35:22;;;;;;;;;;;;;;;;;;4881114;29;19927;-87
2023/08/04 07:37:48;;;;;;;;;;;;;;;;;;4897070;29;19927;-87
2023/08/04 07:40:14;;;;;;;;;;;;;;;;;;4891670;29;19937;-87
2023/08/04 07:42:40;;;;;;;;;;;;;;;;;;4899557;29;19922;-87
2023/08/04 07:45:06;;;;;;;;;;;;;;;;;;4901281;29;20058;-87
2023/08/04 07:47:31;;;;;;;;;;;;;;;;;;4884015;29;19931;-87
2023/08/04 07:49:57;;;;;;;;;;;;;;;;;;4900494;29;19938;-87
2023/08/04 07:52:23;;;;;;;;;;;;;;;;;;4898690;29;19927;-87
2023/08/04 07:54:49;;;;;;;;;;;;;;;;;;4889220;29;19923;-87
2023/08/04 07:57:15;;;;;;;;;;;;;;;;;;4881897;29;20062;-87
2023/08/04 07:59:41;;;;;;;;;;;;;;;;;;4902906;29;23174;-87
2023/08/04 08:02:07;;;;;;;;;;;;;;;;;;4887059;29;19923;-87
2023/08/04 08:04:33;;;;;;;;;;;;;;;;;;4881757;29;19978;-87
2023/08/04 08:06:59;;;;;;;;;;;;;;;;;;4900695;29;19943;-87
2023/08/04 08:09:26;;;;;;;;;;;;;;;;;;4880281;29;19977;-87
2023/08/04 08:11:52;;;;;;;;;;;;;;;;;;4901731;29;19926;-87
2023/08/04 08:14:18;;;;;;;;;;;;;;;;;;4906960;29;19929;-87
2023/08/04 08:16:44;;;;;;;;;;;;;;;;;;4898701;29;20002;-87
2023/08/04 08:19:10;;;;;;;;;;;;;;;;;;4894394;29;19933;-87
2023/08/04 08:21:36;;;;;;;;;;;;;;;;;;4888127;29;19938;-87
2023/08/04 08:24:02;;;;;;;;;;;;;;;;;;4902577;29;19950;-87
2023/08/04 08:26:28;;;;;;;;;;;;;;;;;;4882660;29;20859;-87
2023/08/04 08:28:54;;;;;;;;;;;;;;;;;;4884608;29;19936;-87
2023/08/04 08:31:20;;;;;;;;;;;;;;;;;;4894444;29;19945;-87
2023/08/04 08:33:46;;;;;;;;;;;;;;;;;;4887513;29;19922;-87
2023/08/04 08:36:12;;;;;;;;;;;;;;;;;;4882322;29;19931;-87
2023/08/04 08:38:37;;;;;;;;;;;;;;;;;;4901181;29;19973;-87
2023/08/04 08:41:03;;;;;;;;;;;;;;;;;;4885928;29;19953;-86
2023/08/04 08:43:29;;;;;;;;;;;;;;;;;;4895397;29;19930;-87
2023/08/04 08:45:55;;;;;;;;;;;;;;;;;;4900592;29;19934;-87
2023/08/04 08:48:21;;;;;;;;;;;;;;;;;;4876470;29;19979;-87
2023/08/04 08:50:47;;;;;;;;;;;;;;;;;;4902026;29;20381;-87
2023/08/04 08:53:13;;;;;;;;;;;;;;;;;;4892775;29;19942;-87
2023/08/04 08:55:39;;;;;;;;;;;;;;;;;;4904470;28;19927;-87
2023/08/04 08:58:05;;;;;;;;;;;;;;;;;;4890436;29;19927;-86
2023/08/04 09:00:31;;;;;;;;;;;;;;;;;;4900365;29;19923;-87
2023/08/04 09:02:57;;;;;;;;;;;;;;;;;;4898125;29;20297;-87
2023/08/04 09:05:23;;;;;;;;;;;;;;;;;;4895053;29;19930;-87
2023/08/04 09:07:49;;;;;;;;;;;;;;;;;;4917580;29;19930;-87
2023/08/04 09:10:15;;;;;;;;;;;;;;;;;;4882809;29;20025;-87
2023/08/04 09:12:44;;;;;;;;;;;;;;;;;;4884880;29;20045;-87
2023/08/04 09:15:10;;;;;;;;;;;;;;;;;;4899041;29;19926;-87
2023/08/04 09:17:36;;;;;;;;;;;;;;;;;;4883151;29;19927;-87
2023/08/04 09:20:02;;;;;;;;;;;;;;;;;;4903617;29;19933;-87
2023/08/04 09:22:28;;;;;;;;;;;;;;;;;;4882520;29;20082;-88
2023/08/04 09:24:54;;;;;;;;;;;;;;;;;;4906135;29;20673;-88
2023/08/04 09:27:20;;;;;;;;;;;;;;;;;;4880857;29;19934;-88
2023/08/04 09:29:46;;;;;;;;;;;;;;;;;;4884870;29;19950;-87
2023/08/04 09:32:13;;;;;;;;;;;;;;;;;;4878419;29;19958;-88
2023/08/04 09:34:39;;;;;;;;;;;;;;;;;;4886847;29;20005;-87
2023/08/04 09:37:04;;;;;;;;;;;;;;;;;;4885753;29;19934;-87
2023/08/04 09:39:30;;;;;;;;;;;;;;;;;;4898675;29;19930;-87
2023/08/04 09:41:56;;;;;;;;;;;;;;;;;;4886424;29;19927;-87
2023/08/04 09:44:22;;;;;;;;;;;;;;;;;;4893978;29;19933;-88
2023/08/04 09:46:49;;;;;;;;;;;;;;;;;;4880652;29;20006;-87
2023/08/04 09:49:15;;;;;;;;;;;;;;;;;;4888939;29;20322;-87
2023/08/04 09:51:41;;;;;;;;;;;;;;;;;;4902985;29;19930;-87
2023/08/04 09:54:10;;;;;;;;;;;;;;;;;;4900673;29;20246;-86
2023/08/04 09:56:36;;;;;;;;;;;;;;;;;;4892793;29;20284;-87
2023/08/04 09:59:02;;;;;;;;;;;;;;;;;;4897562;29;19927;-87
2023/08/04 10:01:28;;;;;;;;;;;;;;;;;;4878089;29;20691;-88
2023/08/04 10:03:55;;;;;;;;;;;;;;;;;;4901887;29;20346;-88
2023/08/04 10:06:21;;;;;;;;;;;;;;;;;;4893185;28;19930;-88
2023/08/04 10:08:47;;;;;;;;;;;;;;;;;;4896707;29;19931;-88
2023/08/04 10:11:13;;;;;;;;;;;;;;;;;;4896861;29;19934;-88
2023/08/04 10:13:40;;;;;;;;;;;;;;;;;;4885578;29;19927;-88
2023/08/04 10:16:06;;;;;;;;;;;;;;;;;;4886136;29;19922;-88
2023/08/04 10:18:32;;;;;;;;;;;;;;;;;;4891865;29;19933;-88
2023/08/04 10:20:57;;;;;;;;;;;;;;;;;;4899037;29;20294;-87
2023/08/04 10:23:23;;;;;;;;;;;;;;;;;;4894108;29;19923;-88
2023/08/04 10:25:49;;;;;;;;;;;;;;;;;;4884960;29;19930;-87
2023/08/04 10:28:15;;;;;;;;;;;;;;;;;;4892582;29;19982;-87
2023/08/04 10:30:41;;;;;;;;;;;;;;;;;;4915511;29;19923;-87
2023/08/04 10:33:10;;;;;;;;;;;;;;;;;;4914971;29;19937;-87
2023/08/04 10:35:36;;;;;;;;;;;;;;;;;;4895970;29;19922;-88
2023/08/04 10:38:02;;;;;;;;;;;;;;;;;;4894722;29;19930;-88
2023/08/04 10:40:28;;;;;;;;;;;;;;;;;;4878677;29;21025;-88
2023/08/04 10:42:54;;;;;;;;;;;;;;;;;;4884106;29;19927;-90
2023/08/04 10:45:20;;;;;;;;;;;;;;;;;;4879048;29;20352;-90
2023/08/04 10:47:46;;;;;;;;;;;;;;;;;;4876538;29;19927;-90
2023/08/04 10:50:12;;;;;;;;;;;;;;;;;;4883382;29;21289;-89
2023/08/04 10:52:38;;;;;;;;;;;;;;;;;;4895840;29;19930;-89
2023/08/04 10:55:06;;;;;;;;;;;;;;;;;;4893212;29;20064;-88
2023/08/04 10:57:32;;;;;;;;;;;;;;;;;;4883401;29;19931;-88
2023/08/04 10:59:58;;;;;;;;;;;;;;;;;;4883699;29;19938;-89
2023/08/04 11:02:24;;;;;;;;;;;;;;;;;;4865779;29;20469;-89
2023/08/04 11:04:50;;;;;;;;;;;;;;;;;;4870559;29;19930;-90
2023/08/04 11:07:16;;;;;;;;;;;;;;;;;;4876709;29;21705;-89
2023/08/04 11:09:42;;;;;;;;;;;;;;;;;;4883611;29;19942;-89
2023/08/04 11:12:08;;;;;;;;;;;;;;;;;;4885610;29;19930;-88
2023/08/04 11:14:34;;;;;;;;;;;;;;;;;;4888223;29;19934;-89
2023/08/04 11:17:01;;;;;;;;;;;;;;;;;;4880564;29;19949;-89
2023/08/04 11:19:27;;;;;;;;;;;;;;;;;;4880706;29;20302;-88
2023/08/04 11:21:53;;;;;;;;;;;;;;;;;;4873549;29;19934;-88
2023/08/04 11:24:19;;;;;;;;;;;;;;;;;;4885521;29;19937;-88
2023/08/04 11:26:45;;;;;;;;;;;;;;;;;;4879908;29;20305;-88
2023/08/04 11:29:11;;;;;;;;;;;;;;;;;;4881599;29;19926;-88
2023/08/04 11:31:37;;;;;;;;;;;;;;;;;;4891509;29;19994;-89
2023/08/04 11:34:03;;;;;;;;;;;;;;;;;;4877778;29;20374;-88
2023/08/04 11:36:29;;;;;;;;;;;;;;;;;;4867761;29;20553;-88
2023/08/04 11:38:55;;;;;;;;;;;;;;;;;;4876215;29;19980;-88
2023/08/04 11:41:22;;;;;;;;;;;;;;;;;;4885815;29;19977;-88
2023/08/04 11:43:48;;;;;;;;;;;;;;;;;;4875381;29;20009;-88
2023/08/04 11:46:14;;;;;;;;;;;;;;;;;;4883558;29;19935;-88
2023/08/04 11:48:40;;;;;;;;;;;;;;;;;;4893494;29;20054;-88
2023/08/04 11:51:07;;;;;;;;;;;;;;;;;;4893345;29;20252;-88
2023/08/04 11:53:33;;;;;;;;;;;;;;;;;;4871989;29;20382;-87
2023/08/04 11:55:59;;;;;;;;;;;;;;;;;;4880047;29;19933;-88
2023/08/04 11:58:25;;;;;;;;;;;;;;;;;;4857068;29;19926;-88
2023/08/04 12:00:50;;;;;;;;;;;;;;;;;;4869556;29;19937;-87
2023/08/04 12:03:17;;;;;;;;;;;;;;;;;;4886129;29;19973;-88
2023/08/04 12:05:43;;;;;;;;;;;;;;;;;;4866481;29;19935;-88
2023/08/04 12:08:12;;;;;;;;;;;;;;;;;;4863096;29;19927;-89
2023/08/04 12:10:38;;;;;;;;;;;;;;;;;;4866799;29;19989;-87
2023/08/04 12:13:04;;;;;;;;;;;;;;;;;;4880520;29;20029;-89
2023/08/04 12:15:30;;;;;;;;;;;;;;;;;;4887070;29;20037;-88
2023/08/04 12:17:56;;;;;;;;;;;;;;;;;;4876352;29;19935;-88
2023/08/04 12:20:22;;;;;;;;;;;;;;;;;;4885751;29;19934;-88
2023/08/04 12:22:48;;;;;;;;;;;;;;;;;;4904374;29;19922;-89
2023/08/04 12:25:14;;;;;;;;;;;;;;;;;;4907331;29;20993;-89
2023/08/04 12:27:41;;;;;;;;;;;;;;;;;;4900305;29;19942;-89
2023/08/04 12:30:07;;;;;;;;;;;;;;;;;;4910065;29;19934;-89
2023/08/04 12:32:33;;;;;;;;;;;;;;;;;;4896481;29;20076;-88
2023/08/04 12:34:59;;;;;;;;;;;;;;;;;;4891365;29;19927;-90
2023/08/04 12:37:28;;;;;;;;;;;;;;;;;;4903473;29;19946;-89
2023/08/04 12:39:54;;;;;;;;;;;;;;;;;;4905046;29;19934;-90
2023/08/04 12:42:20;;;;;;;;;;;;;;;;;;4889214;29;19930;-88
2023/08/04 12:44:46;;;;;;;;;;;;;;;;;;4893460;29;20449;-88
2023/08/04 12:47:12;;;;;;;;;;;;;;;;;;4888125;29;19934;-86
2023/08/04 12:49:38;;;;;;;;;;;;;;;;;;4889319;29;19937;-87
2023/08/04 12:52:04;;;;;;;;;;;;;;;;;;4892359;29;19923;-88
2023/08/04 12:54:30;;;;;;;;;;;;;;;;;;4874309;29;19973;-88
2023/08/04 12:56:56;;;;;;;;;;;;;;;;;;4889877;29;19931;-89
2023/08/04 12:59:22;;;;;;;;;;;;;;;;;;4887737;29;19946;-88
2023/08/04 13:01:48;;;;;;;;;;;;;;;;;;4878638;29;22737;-88
2023/08/04 13:04:14;;;;;;;;;;;;;;;;;;4873506;29;20400;-89
2023/08/04 13:06:40;;;;;;;;;;;;;;;;;;4891755;29;19958;-89
2023/08/04 13:09:06;;;;;;;;;;;;;;;;;;4876979;29;19934;-89
2023/08/04 13:11:31;;;;;;;;;;;;;;;;;;4873276;29;19927;-88
2023/08/04 13:13:57;;;;;;;;;;;;;;;;;;4891490;29;20068;-88
2023/08/04 13:16:23;;;;;;;;;;;;;;;;;;4889671;29;19930;-89
2023/08/04 13:18:51;;;;;;;;;;;;;;;;;;4879464;29;19927;-89
2023/08/04 13:21:17;;;;;;;;;;;;;;;;;;4884666;29;20034;-88
2023/08/04 13:23:43;;;;;;;;;;;;;;;;;;4891702;29;19931;-88
2023/08/04 13:26:09;;;;;;;;;;;;;;;;;;4890861;29;19962;-89
2023/08/04 13:28:35;;;;;;;;;;;;;;;;;;4905600;29;19930;-87
2023/08/04 13:31:05;;;;;;;;;;;;;;;;;;4874449;29;19931;-89
2023/08/04 13:33:31;;;;;;;;;;;;;;;;;;4884262;29;19938;-88
2023/08/04 13:35:57;;;;;;;;;;;;;;;;;;4876063;29;19930;-89
2023/08/04 13:38:23;;;;;;;;;;;;;;;;;;4899347;29;19927;-89
2023/08/04 13:40:49;;;;;;;;;;;;;;;;;;4904780;29;19930;-88
2023/08/04 13:43:15;;;;;;;;;;;;;;;;;;4873223;29;19931;-88
2023/08/04 13:45:41;;;;;;;;;;;;;;;;;;4889406;29;20315;-90
2023/08/04 13:48:07;;;;;;;;;;;;;;;;;;4894067;29;19974;-88
2023/08/04 13:50:33;;;;;;;;;;;;;;;;;;4874423;29;19923;-89
2023/08/04 13:52:59;;;;;;;;;;;;;;;;;;4874592;29;19986;-89
2023/08/04 13:55:25;;;;;;;;;;;;;;;;;;4885877;29;19931;-88
2023/08/04 13:57:51;;;;;;;;;;;;;;;;;;4878474;29;19933;-89
2023/08/04 14:00:17;;;;;;;;;;;;;;;;;;4872031;29;19931;-88
2023/08/04 14:02:43;;;;;;;;;;;;;;;;;;4907858;29;19927;-89
2023/08/04 14:05:09;;;;;;;;;;;;;;;;;;4868079;29;19931;-89
2023/08/04 14:07:37;;;;;;;;;;;;;;;;;;4891326;29;19942;-90
2023/08/04 14:10:03;;;;;;;;;;;;;;;;;;4888116;29;19931;-89
2023/08/04 14:12:32;;;;;;;;;;;;;;;;;;4885835;29;19931;-89
2023/08/04 14:14:58;;;;;;;;;;;;;;;;;;4884504;29;19974;-89
2023/08/04 14:17:25;;;;;;;;;;;;;;;;;;4867543;29;19927;-89
2023/08/04 14:19:50;;;;;;;;;;;;;;;;;;4887822;29;19975;-89
2023/08/04 14:22:16;;;;;;;;;;;;;;;;;;4880883;29;20305;-89
2023/08/04 14:24:42;;;;;;;;;;;;;;;;;;4870032;29;19927;-89
2023/08/04 14:27:08;;;;;;;;;;;;;;;;;;4898274;29;20025;-88
2023/08/04 14:29:34;;;;;;;;;;;;;;;;;;4887779;29;20285;-89
2023/08/04 14:32:00;;;;;;;;;;;;;;;;;;4876356;29;19958;-89
2023/08/04 14:34:29;;;;;;;;;;;;;;;;;;4879412;29;20194;-89
2023/08/04 14:36:55;;;;;;;;;;;;;;;;;;4871681;29;20389;-91
2023/08/04 14:39:21;;;;;;;;;;;;;;;;;;4865971;29;20547;-91
2023/08/04 14:41:47;;;;;;;;;;;;;;;;;;4869881;29;19977;-88
2023/08/04 14:44:13;;;;;;;;;;;;;;;;;;4878421;29;20368;-87
2023/08/04 14:46:40;;;;;;;;;;;;;;;;;;4887649;29;20002;-87
2023/08/04 14:49:06;;;;;;;;;;;;;;;;;;4870320;29;19927;-87
2023/08/04 14:51:35;;;;;;;;;;;;;;;;;;4868572;29;20076;-87
2023/08/04 14:54:01;;;;;;;;;;;;;;;;;;4887766;29;19923;-87
2023/08/04 14:56:27;;;;;;;;;;;;;;;;;;4882372;29;20363;-87
2023/08/04 14:58:53;;;;;;;;;;;;;;;;;;4904069;29;19951;-87
2023/08/04 15:01:19;;;;;;;;;;;;;;;;;;4897265;29;19959;-87
2023/08/04 15:03:45;;;;;;;;;;;;;;;;;;4903642;29;20351;-87
2023/08/04 15:06:11;;;;;;;;;;;;;;;;;;4882628;29;19937;-86
2023/08/04 15:08:38;;;;;;;;;;;;;;;;;;4896921;29;19937;-87
2023/08/04 15:11:04;;;;;;;;;;;;;;;;;;4897199;29;20301;-87
2023/08/04 15:13:30;;;;;;;;;;;;;;;;;;4897818;29;19931;-87
2023/08/04 15:15:56;;;;;;;;;;;;;;;;;;4903263;29;20018;-87
2023/08/04 15:18:22;;;;;;;;;;;;;;;;;;4886201;29;19930;-87
2023/08/04 15:20:48;;;;;;;;;;;;;;;;;;4891626;29;19937;-86
2023/08/04 15:23:14;;;;;;;;;;;;;;;;;;4867218;29;19984;-86
2023/08/04 15:25:40;;;;;;;;;;;;;;;;;;4869221;29;24480;-86
2023/08/04 15:28:06;;;;;;;;;;;;;;;;;;4902385;29;19935;-86
2023/08/04 15:30:32;;;;;;;;;;;;;;;;;;4882977;29;19927;-87
2023/08/04 15:32:58;;;;;;;;;;;;;;;;;;4896572;29;19931;-86
2023/08/04 15:35:24;;;;;;;;;;;;;;;;;;4892589;29;19977;-86
2023/08/04 15:37:50;;;;;;;;;;;;;;;;;;4881663;29;19931;-85
2023/08/04 15:40:16;;;;;;;;;;;;;;;;;;4867268;29;20024;-86
2023/08/04 15:42:42;;;;;;;;;;;;;;;;;;4885231;29;19990;-85
2023/08/04 15:45:08;;;;;;;;;;;;;;;;;;4872039;29;19986;-85
2023/08/04 15:47:35;;;;;;;;;;;;;;;;;;4882791;29;20029;-85
2023/08/04 15:50:01;;;;;;;;;;;;;;;;;;4870441;29;19931;-85
2023/08/04 15:52:26;;;;;;;;;;;;;;;;;;4864561;29;19938;-86
2023/08/04 15:54:52;;;;;;;;;;;;;;;;;;4882236;29;19931;-87
2023/08/04 15:57:18;;;;;;;;;;;;;;;;;;4881279;29;20405;-85
2023/08/04 15:59:44;;;;;;;;;;;;;;;;;;4888286;29;20026;-86
2023/08/04 16:02:10;;;;;;;;;;;;;;;;;;4878984;29;19935;-86
2023/08/04 16:04:36;;;;;;;;;;;;;;;;;;4865522;29;19931;-86
2023/08/04 16:07:03;;;;;;;;;;;;;;;;;;4894499;29;20724;-85
2023/08/04 16:09:29;;;;;;;;;;;;;;;;;;4867886;29;19931;-86
2023/08/04 16:11:55;;;;;;;;;;;;;;;;;;4890197;29;20002;-86
2023/08/04 16:14:21;;;;;;;;;;;;;;;;;;4867710;29;19934;-85
2023/08/04 16:19:45;;;;;;;;;;;;;;;;;;4871530;29;19933;-86
2023/08/04 16:22:11;;;;;;;;;;;;;;;;;;4883253;29;19927;-85
2023/08/04 16:24:37;;;;;;;;;;;;;;;;;;4898318;29;19962;-86
2023/08/04 16:27:03;;;;;;;;;;;;;;;;;;4900530;29;19935;-86
2023/08/04 16:29:29;;;;;;;;;;;;;;;;;;4886267;29;20714;-86
2023/08/04 16:31:55;;;;;;;;;;;;;;;;;;4902542;29;19934;-87
2023/08/04 16:34:21;;;;;;;;;;;;;;;;;;4885211;29;19926;-85
2023/08/04 16:36:47;;;;;;;;;;;;;;;;;;4885135;29;19938;-85
2023/08/04 16:39:13;;;;;;;;;;;;;;;;;;4894338;29;20397;-84
2023/08/04 16:41:39;;;;;;;;;;;;;;;;;;4909738;29;19983;-85
2023/08/04 16:44:05;;;;;;;;;;;;;;;;;;4900878;29;19927;-85
2023/08/04 16:46:31;;;;;;;;;;;;;;;;;;4901419;29;19934;-85